createdAt,value
2018-06-09T00:05:02.712Z,27.50
2018-06-09T00:10:06.060Z,27.50
2018-06-09T00:15:09.261Z,27.50
2018-06-09T00:20:12.585Z,27.50
2018-06-09T00:25:15.988Z,27.50
2018-06-09T00:30:19.172Z,27.50
2018-06-09T00:35:22.868Z,27.50
2018-06-09T00:40:26.455Z,27.50
2018-06-09T00:45:30.326Z,27.50
2018-06-09T00:50:33.528Z,27.50
2018-06-09T00:55:37.508Z,27.50
2018-06-09T01:00:40.732Z,27.50
2018-06-09T01:05:43.928Z,27.50
2018-06-09T01:10:47.072Z,27.50
2018-06-09T01:15:50.388Z,27.50
2018-06-09T01:20:53.658Z,27.50
2018-06-09T01:25:56.901Z,27.50
2018-06-09T01:31:00.168Z,27.50
2018-06-09T01:36:03.431Z,27.50
2018-06-09T01:41:06.734Z,27.50
2018-06-09T01:46:09.925Z,27.50
2018-06-09T01:51:13.218Z,27.50
2018-06-09T01:56:16.381Z,27.50
2018-06-09T02:01:19.589Z,27.50
2018-06-09T02:06:22.760Z,27.50
2018-06-09T02:11:26.059Z,27.50
2018-06-09T02:16:29.495Z,27.50
2018-06-09T02:21:32.933Z,27.50
2018-06-09T02:26:36.566Z,27.50
2018-06-09T02:31:39.797Z,27.50
2018-06-09T02:36:42.941Z,27.50
2018-06-09T02:41:46.182Z,27.50
2018-06-09T02:46:49.497Z,27.50
2018-06-09T02:51:52.752Z,27.50
2018-06-09T02:56:56.120Z,27.50
2018-06-09T03:01:59.300Z,27.40
2018-06-09T03:07:02.760Z,27.50
2018-06-09T03:12:06.113Z,27.50
2018-06-09T03:17:09.354Z,27.50
2018-06-09T03:22:12.564Z,27.50
2018-06-09T03:27:15.746Z,27.50
2018-06-09T03:32:18.910Z,27.50
2018-06-09T03:37:22.065Z,27.40
2018-06-09T03:42:25.490Z,27.50
2018-06-09T03:47:28.669Z,27.50
2018-06-09T03:52:32.283Z,27.50
2018-06-09T03:57:35.489Z,27.50
2018-06-09T04:02:38.684Z,27.50
2018-06-09T04:07:42.067Z,27.60
2018-06-09T04:12:45.517Z,27.60
2018-06-09T04:17:48.763Z,27.60
2018-06-09T04:22:52.067Z,27.70
2018-06-09T04:27:56.055Z,27.70
2018-06-09T04:32:59.259Z,27.70
2018-06-09T04:38:02.522Z,27.80
2018-06-09T04:43:06.792Z,27.80
2018-06-09T04:48:09.995Z,27.90
2018-06-09T04:53:13.310Z,27.90
2018-06-09T04:58:16.506Z,28.00
2018-06-09T05:03:19.768Z,28.00
2018-06-09T05:08:22.928Z,28.10
2018-06-09T05:13:26.218Z,28.10
2018-06-09T05:18:29.491Z,28.20
2018-06-09T05:23:33.728Z,28.30
2018-06-09T05:28:37.025Z,28.30
2018-06-09T05:33:40.249Z,28.40
2018-06-09T05:38:43.542Z,28.40
2018-06-09T05:43:46.789Z,28.50
2018-06-09T05:48:49.992Z,28.50
2018-06-09T05:53:53.423Z,28.50
2018-06-09T05:58:56.669Z,28.60
2018-06-09T06:04:00.137Z,28.60
2018-06-09T06:09:04.199Z,28.70
2018-06-09T06:14:07.677Z,28.70
2018-06-09T06:19:11.107Z,28.70
2018-06-09T06:24:14.411Z,28.70
2018-06-09T06:29:17.716Z,28.80
2018-06-09T06:34:21.142Z,28.80
2018-06-09T06:39:24.355Z,28.90
2018-06-09T06:44:27.597Z,28.90
2018-06-09T06:49:30.802Z,28.90
2018-06-09T06:54:34.236Z,28.90
2018-06-09T06:59:37.870Z,29.00
2018-06-09T07:04:41.128Z,29.00
2018-06-09T07:09:44.364Z,29.00
2018-06-09T07:14:47.638Z,29.00
2018-06-09T07:19:51.073Z,29.10
2018-06-09T07:24:54.434Z,29.10
2018-06-09T07:29:57.615Z,29.10
2018-06-09T07:35:00.891Z,29.10
2018-06-09T07:40:04.196Z,29.10
2018-06-09T07:45:07.697Z,29.10
2018-06-09T07:50:10.984Z,29.20
2018-06-09T07:55:14.196Z,29.20
2018-06-09T08:00:17.472Z,29.20
2018-06-09T08:05:20.779Z,29.20
2018-06-09T08:10:24.016Z,29.20
2018-06-09T08:20:36.862Z,29.20
2018-06-09T08:25:40.365Z,29.20
2018-06-09T08:30:43.615Z,29.10
2018-06-09T08:35:46.837Z,29.10
2018-06-09T08:40:50.122Z,29.10
2018-06-09T08:45:53.548Z,29.10
2018-06-09T08:50:57.629Z,29.10
2018-06-09T08:56:00.945Z,29.10
2018-06-09T09:01:04.223Z,29.10
2018-06-09T09:06:07.496Z,29.10
2018-06-09T09:11:11.066Z,29.00
2018-06-09T09:16:14.446Z,29.10
2018-06-09T09:21:18.233Z,29.00
2018-06-09T09:26:21.823Z,29.00
2018-06-09T09:31:25.033Z,29.00
2018-06-09T09:36:29.440Z,28.90
2018-06-09T09:41:32.644Z,29.00
2018-06-09T09:46:36.104Z,28.90
2018-06-09T09:51:39.301Z,28.90
2018-06-09T09:56:42.541Z,28.90
2018-06-09T10:01:45.977Z,28.90
2018-06-09T10:06:49.206Z,28.90
2018-06-09T10:11:52.553Z,28.80
2018-06-09T10:16:55.734Z,28.90
2018-06-09T10:21:59.010Z,28.80
2018-06-09T10:27:03.195Z,28.80
2018-06-09T10:32:06.816Z,28.80
2018-06-09T10:37:10.034Z,28.80
2018-06-09T10:42:13.217Z,28.80
2018-06-09T10:47:16.427Z,28.80
2018-06-09T10:52:19.744Z,28.80
2018-06-09T10:57:22.985Z,28.70
2018-06-09T11:02:26.315Z,28.80
2018-06-09T11:07:29.818Z,28.70
2018-06-09T11:12:33.515Z,28.70
2018-06-09T11:17:36.864Z,28.70
2018-06-09T11:22:40.116Z,28.70
2018-06-09T11:27:43.356Z,28.70
2018-06-09T11:32:46.683Z,28.60
2018-06-09T11:37:50.498Z,28.60
2018-06-09T11:42:54.530Z,28.60
2018-06-09T11:47:58.504Z,28.60
2018-06-09T11:53:01.770Z,28.60
2018-06-09T11:58:05.136Z,28.60
2018-06-09T12:03:08.435Z,28.60
2018-06-09T12:08:11.694Z,28.60
2018-06-09T12:13:15.049Z,28.60
2018-06-09T12:18:18.301Z,28.60
2018-06-09T12:23:21.702Z,28.60
2018-06-09T12:28:25.243Z,28.60
2018-06-09T12:33:28.480Z,28.60
2018-06-09T12:38:31.709Z,28.60
2018-06-09T12:43:34.972Z,28.60
2018-06-09T12:48:38.320Z,28.60
2018-06-09T12:53:41.700Z,28.60
2018-06-09T12:58:44.983Z,28.60
2018-06-09T13:03:48.257Z,28.60
2018-06-09T13:08:51.669Z,28.60
2018-06-09T13:13:54.945Z,28.60
2018-06-09T13:18:58.229Z,28.60
2018-06-09T13:24:01.856Z,28.60
2018-06-09T13:29:05.131Z,28.60
2018-06-09T13:34:09.033Z,28.60
2018-06-09T13:39:12.383Z,28.60
2018-06-09T13:44:16.060Z,28.60
2018-06-09T13:49:19.296Z,28.60
2018-06-09T13:54:22.525Z,28.60
2018-06-09T13:59:27.394Z,28.60
2018-06-09T14:04:30.611Z,28.60
2018-06-09T14:09:33.908Z,28.60
2018-06-09T14:14:37.945Z,28.60
2018-06-09T14:19:41.609Z,28.60
2018-06-09T14:24:44.889Z,28.60
2018-06-09T14:29:48.140Z,28.60
2018-06-09T14:34:51.404Z,28.60
2018-06-09T14:39:54.640Z,28.60
2018-06-09T14:44:57.885Z,28.60
2018-06-09T14:50:01.134Z,28.60
2018-06-09T14:55:04.545Z,28.60
2018-06-09T15:00:07.772Z,28.60
2018-06-09T15:05:11.098Z,28.60
2018-06-09T15:10:14.330Z,28.60
2018-06-09T15:15:17.590Z,28.60
2018-06-09T15:20:21.211Z,28.60
2018-06-09T15:25:24.441Z,28.60
2018-06-09T15:30:27.642Z,28.60
2018-06-09T15:35:30.922Z,28.60
2018-06-09T15:40:34.400Z,28.50
2018-06-09T15:45:37.700Z,28.50
2018-06-09T15:50:41.093Z,28.50
2018-06-09T15:55:44.332Z,28.50
2018-06-09T16:00:47.647Z,28.50
2018-06-09T16:05:50.820Z,28.50
2018-06-09T16:10:54.051Z,28.50
2018-06-09T16:15:57.406Z,28.50
2018-06-09T16:21:00.756Z,28.50
2018-06-09T16:26:04.415Z,28.50
2018-06-09T16:31:07.602Z,28.60
2018-06-09T16:36:10.917Z,28.60
2018-06-09T16:41:14.177Z,28.60
2018-06-09T16:46:17.423Z,28.50
2018-06-09T16:51:20.664Z,28.60
2018-06-09T16:56:23.960Z,28.50
2018-06-09T17:01:28.193Z,28.50
2018-06-09T17:06:31.461Z,28.50
2018-06-09T17:11:35.013Z,28.50
2018-06-09T17:16:38.504Z,28.50
2018-06-09T17:21:41.725Z,28.50
2018-06-09T17:26:45.156Z,28.50
2018-06-09T17:31:48.405Z,28.50
2018-06-09T17:36:51.633Z,28.50
2018-06-09T17:41:54.837Z,28.50
2018-06-09T17:46:58.044Z,28.50
2018-06-09T17:52:01.335Z,28.50
2018-06-09T17:57:04.799Z,28.50
2018-06-09T18:02:08.070Z,28.50
2018-06-09T18:07:11.472Z,28.50
2018-06-09T18:12:14.691Z,28.50
2018-06-09T18:17:18.155Z,28.50
2018-06-09T18:22:21.491Z,28.50
2018-06-09T18:27:25.032Z,28.50
2018-06-09T18:32:28.299Z,28.50
2018-06-09T18:37:31.558Z,28.40
2018-06-09T18:42:34.742Z,28.50
2018-06-09T18:47:38.056Z,28.40
2018-06-09T18:52:41.420Z,28.40
2018-06-09T18:57:44.626Z,28.40
2018-06-09T19:02:48.194Z,28.40
2018-06-09T19:07:51.398Z,28.40
2018-06-09T19:12:55.374Z,28.40
2018-06-09T19:17:58.766Z,28.40
2018-06-09T19:23:02.037Z,28.40
2018-06-09T19:28:05.428Z,28.40
2018-06-09T19:33:08.660Z,28.40
2018-06-09T19:38:12.348Z,28.40
2018-06-09T19:43:15.827Z,28.40
2018-06-09T19:48:19.082Z,28.40
2018-06-09T19:53:22.330Z,28.40
2018-06-09T19:58:25.646Z,28.40
2018-06-09T20:03:29.006Z,28.30
2018-06-09T20:08:32.237Z,28.40
2018-06-09T20:13:35.578Z,28.40
2018-06-09T20:18:38.872Z,28.30
2018-06-09T20:23:42.239Z,28.40
2018-06-09T20:28:45.416Z,28.40
2018-06-09T20:33:48.803Z,28.40
2018-06-09T20:38:52.094Z,28.40
2018-06-09T20:43:55.536Z,28.40
2018-06-09T20:48:58.831Z,28.40
2018-06-09T20:54:02.509Z,28.30
2018-06-09T20:59:06.436Z,28.30
2018-06-09T21:04:09.690Z,28.30
2018-06-09T21:09:13.040Z,28.40
2018-06-09T21:14:16.320Z,28.30
2018-06-09T21:19:19.740Z,28.30
2018-06-09T21:24:22.998Z,28.30
2018-06-09T21:29:32.334Z,28.30
2018-06-09T21:34:52.445Z,28.30
2018-06-09T21:40:01.661Z,28.30
2018-06-09T21:45:09.534Z,28.30
2018-06-09T21:50:13.393Z,28.30
2018-06-09T21:55:16.657Z,28.30
2018-06-09T22:00:20.627Z,28.30
2018-06-09T22:05:23.837Z,28.30
2018-06-09T22:10:27.193Z,28.30
2018-06-09T22:15:32.961Z,28.30
2018-06-09T22:20:36.621Z,28.30
2018-06-09T22:25:45.391Z,28.30
2018-06-09T22:30:48.671Z,28.30
2018-06-09T22:35:51.897Z,28.30
2018-06-09T22:40:55.194Z,28.30
2018-06-09T22:45:58.435Z,28.30
2018-06-09T22:51:01.691Z,28.30
2018-06-09T22:56:05.016Z,28.20
2018-06-09T23:01:08.387Z,28.30
2018-06-09T23:06:11.642Z,28.30
2018-06-09T23:11:15.120Z,28.20
2018-06-09T23:16:18.316Z,28.20
2018-06-09T23:21:21.528Z,28.20
2018-06-09T23:26:24.917Z,28.20
2018-06-09T23:31:28.182Z,28.30
2018-06-09T23:36:31.400Z,28.20
2018-06-09T23:41:34.644Z,28.20
2018-06-09T23:46:38.101Z,28.20
2018-06-09T23:51:41.407Z,28.30
2018-06-09T23:56:44.670Z,28.20
